Time,TemperatureF,DewpointF,PressureIn,WindDirection,WindDirectionDegrees,WindSpeedMPH,WindSpeedGustMPH,Humidity,HourlyPrecipIn,Conditions,Clouds,dailyrainin,SoftwareType,DateUTC
2013-06-12 00:01:00,52.5,52.5,29.56,North,-999,-999.0,-999.0,100,0.04,,,0.00,WSDL version 420,2013-06-12 04:01:00,
2013-06-12 00:02:00,52.5,52.5,29.56,North,-999,-999.0,-999.0,100,0.04,,,0.00,WSDL version 420,2013-06-12 04:02:00,
2013-06-12 00:03:00,52.5,52.5,29.56,North,-999,-999.0,-999.0,100,0.04,,,0.00,WSDL version 420,2013-06-12 04:03:00,
2013-06-12 00:07:00,52.5,52.5,29.56,North,-999,-999.0,-999.0,100,0.04,,,0.00,WSDL version 420,2013-06-12 04:07:00,
2013-06-12 00:08:00,52.5,52.5,29.56,North,-999,-999.0,-999.0,100,0.04,,,0.00,WSDL version 420,2013-06-12 04:08:00,
2013-06-12 00:13:00,52.5,52.5,29.56,North,-999,-999.0,-999.0,100,0.04,,,0.00,WSDL version 420,2013-06-12 04:13:00,
2013-06-12 00:19:00,52.5,52.5,29.56,North,-999,-999.0,-999.0,100,0.04,,,0.00,WSDL version 420,2013-06-12 04:19:00,
2013-06-12 00:24:00,52.5,52.5,29.56,North,-999,-999.0,-999.0,100,0.04,,,0.00,WSDL version 420,2013-06-12 04:24:00,
2013-06-12 00:29:00,52.5,52.5,29.56,North,-999,-999.0,-999.0,100,0.04,,,0.00,WSDL version 420,2013-06-12 04:29:00,
2013-06-12 00:34:00,52.5,52.5,29.56,North,-999,-999.0,-999.0,100,0.04,,,0.00,WSDL version 420,2013-06-12 04:34:00,
2013-06-12 00:40:00,52.3,52.3,29.56,North,-999,-999.0,-999.0,100,0.00,,,0.00,WSDL version 420,2013-06-12 04:40:00,
2013-06-12 00:45:00,52.3,52.3,29.56,North,-999,-999.0,-999.0,100,0.00,,,0.00,WSDL version 420,2013-06-12 04:45:00,
2013-06-12 00:50:00,52.3,52.3,29.56,North,-999,-999.0,-999.0,100,0.00,,,0.00,WSDL version 420,2013-06-12 04:50:00,
2013-06-12 00:55:00,52.3,52.3,29.56,North,-999,-999.0,-999.0,100,0.00,,,0.00,WSDL version 420,2013-06-12 04:55:00,
2013-06-12 01:01:00,52.3,52.3,29.56,North,-999,-999.0,-999.0,100,0.00,,,0.00,WSDL version 420,2013-06-12 05:01:00,
2013-06-12 01:06:00,52.3,52.3,29.56,North,-999,-999.0,-999.0,100,0.00,,,0.00,WSDL version 420,2013-06-12 05:06:00,
2013-06-12 01:11:00,52.3,52.2,29.56,North,-999,-999.0,-999.0,100,0.00,,,0.00,WSDL version 420,2013-06-12 05:11:00,
2013-06-12 01:16:00,52.2,52.2,29.56,North,-999,-999.0,-999.0,100,0.00,,,0.00,WSDL version 420,2013-06-12 05:16:00,
2013-06-12 01:22:00,52.2,52.2,29.56,North,-999,-999.0,-999.0,100,0.00,,,0.00,WSDL version 420,2013-06-12 05:22:00,
2013-06-12 01:27:00,52.1,52.1,29.56,North,-999,-999.0,-999.0,100,0.00,,,0.00,WSDL version 420,2013-06-12 05:27:00,
2013-06-12 01:32:00,52.0,52.0,29.56,North,-999,-999.0,-999.0,100,0.00,,,0.00,WSDL version 420,2013-06-12 05:32:00,
2013-06-12 01:37:00,52.0,52.0,29.56,North,-999,-999.0,-999.0,100,0.00,,,0.00,WSDL version 420,2013-06-12 05:37:00,
2013-06-12 01:42:00,51.9,51.9,29.56,North,-999,-999.0,-999.0,100,0.00,,,0.00,WSDL version 420,2013-06-12 05:42:00,
2013-06-12 01:47:00,51.8,51.8,29.56,North,-999,-999.0,-999.0,100,0.00,,,0.00,WSDL version 420,2013-06-12 05:47:00,
2013-06-12 01:52:00,51.8,51.8,29.53,North,-999,-999.0,-999.0,100,0.00,,,0.00,WSDL version 420,2013-06-12 05:52:00,
2013-06-12 01:57:00,51.8,51.8,29.53,North,-999,-999.0,-999.0,100,0.00,,,0.00,WSDL version 420,2013-06-12 05:57:00,
2013-06-12 02:02:00,51.6,51.6,29.53,North,-999,-999.0,-999.0,100,0.00,,,0.00,WSDL version 420,2013-06-12 06:02:00,
2013-06-12 02:07:00,51.6,51.6,29.56,North,-999,-999.0,-999.0,100,0.00,,,0.00,WSDL version 420,2013-06-12 06:07:00,
2013-06-12 02:12:00,51.6,51.6,29.56,North,-999,-999.0,-999.0,100,0.00,,,0.00,WSDL version 420,2013-06-12 06:12:00,
2013-06-12 02:17:00,51.6,51.6,29.56,North,-999,-999.0,-999.0,100,0.00,,,0.00,WSDL version 420,2013-06-12 06:17:00,
2013-06-12 02:22:00,51.6,51.6,29.53,North,-999,-999.0,-999.0,100,0.00,,,0.00,WSDL version 420,2013-06-12 06:22:00,
2013-06-12 02:27:00,51.6,51.6,29.53,North,-999,-999.0,-999.0,100,0.00,,,0.00,WSDL version 420,2013-06-12 06:27:00,
2013-06-12 02:32:00,51.6,51.6,29.53,North,-999,-999.0,-999.0,100,0.00,,,0.00,WSDL version 420,2013-06-12 06:32:00,
2013-06-12 02:37:00,51.6,51.6,29.56,WNW,293,4.0,4.0,100,0.00,,,0.00,WSDL version 420,2013-06-12 06:37:00,
2013-06-12 02:42:00,51.5,51.5,29.56,NW,315,2.9,4.0,100,0.00,,,0.00,WSDL version 420,2013-06-12 06:42:00,
2013-06-12 02:48:00,51.4,51.4,29.56,WNW,293,4.9,4.9,100,0.00,,,0.00,WSDL version 420,2013-06-12 06:48:00,
2013-06-12 02:53:00,51.4,51.4,29.56,WNW,293,4.9,4.9,100,0.00,,,0.00,WSDL version 420,2013-06-12 06:53:00,
2013-06-12 02:58:00,51.4,51.4,29.56,WNW,293,4.9,4.9,100,0.00,,,0.00,WSDL version 420,2013-06-12 06:58:00,
2013-06-12 03:03:00,51.4,51.4,29.56,WNW,293,4.9,4.9,100,0.00,,,0.00,WSDL version 420,2013-06-12 07:03:00,
2013-06-12 03:09:00,51.4,51.4,29.53,North,-999,-999.0,-999.0,100,0.00,,,0.00,WSDL version 420,2013-06-12 07:09:00,
2013-06-12 03:14:00,51.4,51.4,29.53,North,-999,-999.0,-999.0,100,0.00,,,0.00,WSDL version 420,2013-06-12 07:14:00,
2013-06-12 03:19:00,51.4,51.4,29.53,North,-999,-999.0,-999.0,100,0.00,,,0.00,WSDL version 420,2013-06-12 07:19:00,
2013-06-12 03:25:00,51.4,51.4,29.53,North,-999,-999.0,-999.0,100,0.00,,,0.00,WSDL version 420,2013-06-12 07:25:00,
2013-06-12 03:30:00,51.4,51.4,29.53,North,-999,-999.0,-999.0,100,0.00,,,0.00,WSDL version 420,2013-06-12 07:30:00,
2013-06-12 03:35:00,51.4,51.4,29.56,North,-999,-999.0,-999.0,100,0.00,,,0.00,WSDL version 420,2013-06-12 07:35:00,
2013-06-12 03:40:00,51.4,51.4,29.56,North,-999,-999.0,-999.0,100,0.00,,,0.00,WSDL version 420,2013-06-12 07:40:00,
2013-06-12 03:45:00,51.4,51.4,29.56,North,-999,-999.0,-999.0,100,0.00,,,0.00,WSDL version 420,2013-06-12 07:45:00,
2013-06-12 03:50:00,51.4,51.4,29.53,North,-999,-999.0,-999.0,100,0.00,,,0.00,WSDL version 420,2013-06-12 07:50:00,
2013-06-12 03:55:00,51.4,51.4,29.53,North,-999,-999.0,-999.0,100,0.00,,,0.00,WSDL version 420,2013-06-12 07:55:00,
2013-06-12 04:01:00,51.4,51.4,29.53,North,-999,-999.0,-999.0,100,0.00,,,0.00,WSDL version 420,2013-06-12 08:01:00,
2013-06-12 04:07:00,51.4,51.4,29.56,North,-999,-999.0,-999.0,100,0.00,,,0.00,WSDL version 420,2013-06-12 08:07:00,
2013-06-12 04:12:00,51.4,51.4,29.56,North,-999,-999.0,-999.0,100,0.00,,,0.00,WSDL version 420,2013-06-12 08:12:00,
2013-06-12 04:17:00,51.4,51.4,29.56,North,-999,-999.0,-999.0,100,0.00,,,0.00,WSDL version 420,2013-06-12 08:17:00,
2013-06-12 04:22:00,51.4,51.4,29.56,North,-999,-999.0,-999.0,100,0.00,,,0.00,WSDL version 420,2013-06-12 08:22:00,
2013-06-12 04:27:00,51.4,51.4,29.56,North,-999,-999.0,-999.0,100,0.00,,,0.00,WSDL version 420,2013-06-12 08:27:00,
2013-06-12 04:32:00,51.4,51.4,29.56,North,-999,-999.0,-999.0,100,0.00,,,0.00,WSDL version 420,2013-06-12 08:32:00,
2013-06-12 04:37:00,51.4,51.4,29.53,North,-999,-999.0,-999.0,100,0.00,,,0.00,WSDL version 420,2013-06-12 08:37:00,
2013-06-12 04:42:00,51.4,51.4,29.53,North,-999,-999.0,-999.0,100,0.00,,,0.00,WSDL version 420,2013-06-12 08:42:00,
2013-06-12 04:47:00,51.3,51.3,29.53,North,-999,-999.0,-999.0,100,0.00,,,0.00,WSDL version 420,2013-06-12 08:47:00,
2013-06-12 04:52:00,51.3,51.3,29.56,North,-999,-999.0,-999.0,100,0.00,,,0.00,WSDL version 420,2013-06-12 08:52:00,
2013-06-12 04:57:00,51.3,51.3,29.56,North,-999,-999.0,-999.0,100,0.00,,,0.00,WSDL version 420,2013-06-12 08:57:00,
2013-06-12 05:02:00,51.3,51.3,29.56,WNW,285,3.4,3.4,100,-99.99,,,-99.99,WSDL version 420,2013-06-12 09:02:00,
2013-06-12 05:08:00,51.3,51.3,29.53,NW,304,3.4,5.4,100,0.00,,,0.00,WSDL version 420,2013-06-12 09:08:00,
2013-06-12 05:13:00,51.3,51.3,29.53,NW,307,3.6,5.4,100,0.00,,,0.00,WSDL version 420,2013-06-12 09:13:00,
2013-06-12 05:19:00,51.3,51.3,29.56,NW,305,5.5,9.6,100,-99.99,,,-99.99,WSDL version 420,2013-06-12 09:19:00,
2013-06-12 05:24:00,51.3,51.3,29.56,NW,309,3.7,9.6,100,0.00,,,0.00,WSDL version 420,2013-06-12 09:24:00,
2013-06-12 05:29:00,51.3,51.3,29.56,WNW,293,6.3,6.3,100,0.00,,,0.00,WSDL version 420,2013-06-12 09:29:00,
2013-06-12 05:34:00,51.3,51.3,29.59,WNW,293,4.0,6.0,100,-99.99,,,-99.99,WSDL version 420,2013-06-12 09:34:00,
2013-06-12 05:41:00,51.4,51.4,29.59,WNW,293,5.7,7.2,100,0.00,,,0.00,WSDL version 420,2013-06-12 09:41:00,
2013-06-12 05:46:00,51.4,51.4,29.59,WNW,293,6.1,7.6,100,0.00,,,0.00,WSDL version 420,2013-06-12 09:46:00,
2013-06-12 05:52:00,51.4,51.4,29.59,NW,319,6.0,8.5,100,0.00,,,0.00,WSDL version 420,2013-06-12 09:52:00,
2013-06-12 05:57:00,51.5,51.5,29.59,NW,319,6.5,9.4,100,0.00,,,0.00,WSDL version 420,2013-06-12 09:57:00,
2013-06-12 06:02:00,51.6,51.6,29.59,WNW,289,6.2,10.5,100,0.00,,,0.00,WSDL version 420,2013-06-12 10:02:00,
2013-06-12 06:08:00,51.6,51.6,29.59,NW,320,3.8,10.5,100,0.00,,,0.00,WSDL version 420,2013-06-12 10:08:00,
2013-06-12 06:13:00,51.6,51.6,29.59,WNW,301,5.7,9.4,100,0.00,,,0.00,WSDL version 420,2013-06-12 10:13:00,
2013-06-12 06:17:00,51.6,51.6,29.59,NW,319,5.1,10.7,100,0.00,,,0.00,WSDL version 420,2013-06-12 10:17:00,
2013-06-12 06:22:00,51.6,51.6,29.59,WNW,300,7.3,10.7,100,0.00,,,0.00,WSDL version 420,2013-06-12 10:22:00,
2013-06-12 06:28:00,51.6,51.6,29.59,WNW,300,5.7,10.5,100,0.00,,,0.00,WSDL version 420,2013-06-12 10:28:00,
2013-06-12 06:33:00,51.6,51.6,29.62,WNW,299,5.6,12.1,100,0.00,,,0.00,WSDL version 420,2013-06-12 10:33:00,
2013-06-12 06:39:00,51.6,51.6,29.62,WNW,299,5.1,12.1,100,0.00,,,0.00,WSDL version 420,2013-06-12 10:39:00,
2013-06-12 06:44:00,51.6,51.6,29.62,NW,311,5.8,12.3,100,0.00,,,0.00,WSDL version 420,2013-06-12 10:44:00,
2013-06-12 06:49:00,51.6,51.6,29.59,NW,304,7.0,12.5,100,0.00,,,0.00,WSDL version 420,2013-06-12 10:49:00,
2013-06-12 06:54:00,51.7,51.7,29.59,NW,315,6.4,12.5,100,0.00,,,0.00,WSDL version 420,2013-06-12 10:54:00,
2013-06-12 06:59:00,51.8,51.8,29.59,NW,319,6.0,11.9,100,0.00,,,0.00,WSDL version 420,2013-06-12 10:59:00,
2013-06-12 07:04:00,51.9,51.9,29.62,WNW,303,6.8,13.0,100,0.00,,,0.00,WSDL version 420,2013-06-12 11:04:00,
2013-06-12 07:10:00,52.0,52.0,29.62,NNW,334,8.2,13.0,100,0.00,,,0.00,WSDL version 420,2013-06-12 11:10:00,
2013-06-12 07:15:00,52.1,52.1,29.62,NW,305,6.4,13.0,100,0.00,,,0.00,WSDL version 420,2013-06-12 11:15:00,
2013-06-12 07:21:00,52.2,52.2,29.62,WNW,302,7.2,11.0,100,0.00,,,0.00,WSDL version 420,2013-06-12 11:21:00,
2013-06-12 07:26:00,52.2,52.2,29.62,NW,312,7.4,12.5,100,0.00,,,0.00,WSDL version 420,2013-06-12 11:26:00,
2013-06-12 07:31:00,52.2,52.2,29.62,WNW,296,6.8,12.5,100,-99.99,,,-99.99,WSDL version 420,2013-06-12 11:31:00,
2013-06-12 07:37:00,52.3,52.3,29.62,NW,321,5.6,11.4,100,0.00,,,0.00,WSDL version 420,2013-06-12 11:37:00,
2013-06-12 07:42:00,52.5,52.5,29.62,NW,321,6.4,11.4,100,0.00,,,0.00,WSDL version 420,2013-06-12 11:42:00,
2013-06-12 07:47:00,52.5,52.5,29.62,WNW,293,6.6,10.3,100,0.00,,,0.00,WSDL version 420,2013-06-12 11:47:00,
2013-06-12 07:52:00,52.5,52.5,29.62,WNW,296,6.4,12.5,100,0.00,,,0.00,WSDL version 420,2013-06-12 11:52:00,
2013-06-12 07:57:00,52.6,52.6,29.62,NW,307,8.3,13.0,100,0.00,,,0.00,WSDL version 420,2013-06-12 11:57:00,
2013-06-12 08:03:00,52.7,52.7,29.62,NW,315,7.2,13.0,100,0.00,,,0.00,WSDL version 420,2013-06-12 12:03:00,
2013-06-12 08:08:00,52.7,52.7,29.62,NW,305,5.9,10.3,100,0.00,,,0.00,WSDL version 420,2013-06-12 12:08:00,
2013-06-12 08:13:00,52.7,52.7,29.62,NW,311,6.5,10.7,100,0.00,,,0.00,WSDL version 420,2013-06-12 12:13:00,
2013-06-12 08:18:00,52.7,52.7,29.62,NW,320,6.4,13.2,100,0.00,,,0.00,WSDL version 420,2013-06-12 12:18:00,
2013-06-12 08:23:00,52.7,52.7,29.62,NW,312,5.3,13.2,100,0.00,,,0.00,WSDL version 420,2013-06-12 12:23:00,
2013-06-12 08:29:00,52.9,52.9,29.62,NW,308,6.0,12.5,100,0.00,,,0.00,WSDL version 420,2013-06-12 12:29:00,
2013-06-12 08:34:00,53.1,53.1,29.62,West,279,5.2,12.5,100,0.00,,,0.00,WSDL version 420,2013-06-12 12:34:00,
2013-06-12 08:39:00,53.1,53.1,29.62,NW,321,5.8,10.1,100,0.00,,,0.00,WSDL version 420,2013-06-12 12:39:00,
2013-06-12 08:44:00,53.2,53.2,29.62,NNW,338,3.6,10.5,100,0.00,,,0.00,WSDL version 420,2013-06-12 12:44:00,
2013-06-12 08:49:00,53.4,53.4,29.59,NW,323,4.2,10.5,100,0.00,,,0.00,WSDL version 420,2013-06-12 12:49:00,
2013-06-12 08:55:00,53.6,53.3,29.59,WNW,287,6.7,10.5,99,0.00,,,0.00,WSDL version 420,2013-06-12 12:55:00,
2013-06-12 09:00:00,53.6,53.3,29.59,WSW,240,8.7,10.5,99,0.00,,,0.00,WSDL version 420,2013-06-12 13:00:00,
2013-06-12 09:06:00,53.6,53.0,29.62,NW,315,12.3,12.5,98,0.00,,,0.00,WSDL version 420,2013-06-12 13:06:00,
2013-06-12 09:11:00,53.8,53.2,29.62,NW,315,12.3,12.5,98,0.00,,,0.00,WSDL version 420,2013-06-12 13:11:00,
2013-06-12 09:16:00,54.0,53.3,29.62,NW,315,12.3,12.5,97,-99.99,,,-99.99,WSDL version 420,2013-06-12 13:16:00,
2013-06-12 09:21:00,54.1,53.2,29.62,North,-999,-999.0,-999.0,97,0.00,,,0.00,WSDL version 420,2013-06-12 13:21:00,
2013-06-12 09:26:00,54.3,53.4,29.62,North,360,6.7,10.7,97,0.00,,,0.00,WSDL version 420,2013-06-12 13:26:00,
2013-06-12 09:31:00,54.4,53.3,29.62,West,270,8.5,17.4,96,0.00,,,0.00,WSDL version 420,2013-06-12 13:31:00,
2013-06-12 09:36:00,54.5,53.3,29.62,WSW,248,12.5,17.4,96,0.00,,,0.00,WSDL version 420,2013-06-12 13:36:00,
2013-06-12 09:42:00,54.5,53.1,29.62,WNW,293,9.8,17.4,94,0.00,,,0.00,WSDL version 420,2013-06-12 13:42:00,
2013-06-12 09:47:00,54.7,53.1,29.62,West,259,9.7,11.2,94,0.00,,,0.00,WSDL version 420,2013-06-12 13:47:00,
2013-06-12 09:52:00,54.5,52.6,29.62,NW,308,8.6,10.7,93,0.00,,,0.00,WSDL version 420,2013-06-12 13:52:00,
2013-06-12 09:58:00,54.5,52.4,29.62,West,270,6.5,10.7,92,0.00,,,0.00,WSDL version 420,2013-06-12 13:58:00,
2013-06-12 10:03:00,54.6,52.6,29.62,NW,304,7.8,7.8,92,0.00,,,0.00,WSDL version 420,2013-06-12 14:03:00,
2013-06-12 10:08:00,54.8,52.7,29.62,WNW,293,8.1,12.8,92,0.00,,,0.00,WSDL version 420,2013-06-12 14:08:00,
2013-06-12 10:13:00,55.0,52.8,29.62,NNW,338,9.4,12.8,92,0.00,,,0.00,WSDL version 420,2013-06-12 14:13:00,
2013-06-12 10:18:00,55.2,52.8,29.62,NNW,338,9.4,12.8,91,0.00,,,0.00,WSDL version 420,2013-06-12 14:18:00,
2013-06-12 10:23:00,55.3,52.6,29.62,NNW,338,9.4,9.4,91,0.00,,,0.00,WSDL version 420,2013-06-12 14:23:00,
2013-06-12 10:28:00,55.4,52.9,29.62,North,-999,-999.0,-999.0,91,0.00,,,0.00,WSDL version 420,2013-06-12 14:28:00,
2013-06-12 10:33:00,55.4,53.1,29.62,North,-999,-999.0,-999.0,91,0.00,,,0.00,WSDL version 420,2013-06-12 14:33:00,
2013-06-12 10:38:00,55.6,52.9,29.65,North,-999,-999.0,-999.0,90,0.00,,,0.00,WSDL version 420,2013-06-12 14:38:00,
2013-06-12 10:43:00,55.8,52.8,29.65,North,-999,-999.0,-999.0,89,0.00,,,0.00,WSDL version 420,2013-06-12 14:43:00,
2013-06-12 10:49:00,55.8,52.6,29.65,SSW,203,7.2,7.2,89,0.00,,,0.00,WSDL version 420,2013-06-12 14:49:00,
2013-06-12 10:54:00,56.0,53.1,29.65,SSW,203,7.2,7.2,90,0.00,,,0.00,WSDL version 420,2013-06-12 14:54:00,
2013-06-12 11:00:00,56.2,52.4,29.65,SSW,203,7.2,7.2,87,0.00,,,0.00,WSDL version 420,2013-06-12 15:00:00,
2013-06-12 11:06:00,56.4,52.7,29.65,NNW,338,10.1,10.5,88,0.00,,,0.00,WSDL version 420,2013-06-12 15:06:00,
2013-06-12 11:11:00,56.5,52.3,29.65,NNW,338,10.1,10.5,86,0.00,,,0.00,WSDL version 420,2013-06-12 15:11:00,
2013-06-12 11:16:00,56.8,52.4,29.65,NNW,338,10.1,10.5,86,0.00,,,0.00,WSDL version 420,2013-06-12 15:16:00,
2013-06-12 11:21:00,57.1,53.3,29.65,North,-999,-999.0,-999.0,88,0.00,,,0.00,WSDL version 420,2013-06-12 15:21:00,
2013-06-12 11:26:00,57.2,52.6,29.65,North,-999,-999.0,-999.0,84,0.00,,,0.00,WSDL version 420,2013-06-12 15:26:00,
2013-06-12 11:31:00,57.2,52.8,29.65,SSW,203,9.8,9.8,84,0.00,,,0.00,WSDL version 420,2013-06-12 15:31:00,
2013-06-12 11:36:00,57.3,52.3,29.68,SSW,203,9.8,9.8,84,0.00,,,0.00,WSDL version 420,2013-06-12 15:36:00,
2013-06-12 11:41:00,57.7,52.7,29.68,NW,315,6.5,7.6,82,0.00,,,0.00,WSDL version 420,2013-06-12 15:41:00,
2013-06-12 11:47:00,58.0,52.9,29.68,NW,315,6.5,7.6,84,0.00,,,0.00,WSDL version 420,2013-06-12 15:47:00,
2013-06-12 11:52:00,58.1,52.8,29.68,North,360,7.2,7.6,81,0.00,,,0.00,WSDL version 420,2013-06-12 15:52:00,
2013-06-12 12:00:00,58.1,53.3,29.68,WNW,300,6.1,6.5,83,0.00,,,0.00,WSDL version 420,2013-06-12 16:00:00,
2013-06-12 12:05:00,58.0,52.9,29.68,NW,326,7.2,13.2,82,0.00,,,0.00,WSDL version 420,2013-06-12 16:05:00,
2013-06-12 12:10:00,57.8,52.6,29.68,West,270,9.8,13.2,83,0.00,,,0.00,WSDL version 420,2013-06-12 16:10:00,
2013-06-12 12:15:00,57.7,52.5,29.68,WNW,293,7.6,13.6,83,0.00,,,0.00,WSDL version 420,2013-06-12 16:15:00,
2013-06-12 12:20:00,57.5,52.6,29.68,NW,323,10.7,13.6,84,0.00,,,0.00,WSDL version 420,2013-06-12 16:20:00,
2013-06-12 12:25:00,57.2,52.7,29.68,NW,308,9.0,13.6,86,0.00,,,0.00,WSDL version 420,2013-06-12 16:25:00,
2013-06-12 12:30:00,57.0,53.0,29.68,NW,323,8.4,8.5,87,0.00,,,0.00,WSDL version 420,2013-06-12 16:30:00,
2013-06-12 12:35:00,56.7,52.8,29.68,NNE,23,7.8,10.7,87,0.00,,,0.00,WSDL version 420,2013-06-12 16:35:00,
2013-06-12 12:40:00,56.3,52.8,29.68,NNE,23,7.8,10.7,88,0.00,,,0.00,WSDL version 420,2013-06-12 16:40:00,
2013-06-12 12:46:00,56.1,52.9,29.68,WNW,293,5.8,6.3,89,0.00,,,0.00,WSDL version 420,2013-06-12 16:46:00,
2013-06-12 12:51:00,56.0,52.8,29.71,ENE,68,11.4,11.4,89,0.00,,,0.00,WSDL version 420,2013-06-12 16:51:00,
2013-06-12 12:56:00,55.9,53.1,29.71,NNW,338,5.6,7.8,91,0.00,,,0.00,WSDL version 420,2013-06-12 16:56:00,
2013-06-12 13:03:00,56.3,53.7,29.71,NW,324,9.1,12.5,91,0.00,,,0.00,WSDL version 420,2013-06-12 17:03:00,
2013-06-12 13:08:00,56.3,53.7,29.71,West,278,8.9,12.5,91,0.00,,,0.00,WSDL version 420,2013-06-12 17:08:00,
2013-06-12 13:14:00,56.7,54.2,29.71,WNW,293,7.6,12.5,91,0.00,,,0.00,WSDL version 420,2013-06-12 17:14:00,
2013-06-12 13:19:00,57.1,54.0,29.71,North,360,6.7,12.5,88,0.00,,,0.00,WSDL version 420,2013-06-12 17:19:00,
2013-06-12 13:24:00,57.7,54.2,29.71,NNW,338,7.6,13.0,87,0.00,,,0.00,WSDL version 420,2013-06-12 17:24:00,
2013-06-12 13:29:00,58.2,53.7,29.71,North,360,5.8,13.0,84,0.00,,,0.00,WSDL version 420,2013-06-12 17:29:00,
2013-06-12 13:34:00,58.6,53.7,29.68,West,270,11.9,13.0,83,0.00,,,0.00,WSDL version 420,2013-06-12 17:34:00,
2013-06-12 13:39:00,58.8,53.5,29.68,North,360,9.8,10.7,82,0.00,,,0.00,WSDL version 420,2013-06-12 17:39:00,
2013-06-12 13:44:00,59.0,53.0,29.68,WNW,293,6.3,10.7,78,0.00,,,0.00,WSDL version 420,2013-06-12 17:44:00,
2013-06-12 13:49:00,59.0,52.2,29.68,WNW,293,9.2,11.0,77,0.00,,,0.00,WSDL version 420,2013-06-12 17:49:00,
2013-06-12 13:55:00,58.9,51.7,29.68,WNW,285,8.8,11.0,76,0.00,,,0.00,WSDL version 420,2013-06-12 17:55:00,
2013-06-12 14:00:00,59.0,52.2,29.68,NW,326,7.6,13.0,78,0.00,,,0.00,WSDL version 420,2013-06-12 18:00:00,
2013-06-12 14:05:00,59.1,52.3,29.68,SW,225,4.5,13.0,78,0.00,,,0.00,WSDL version 420,2013-06-12 18:05:00,
2013-06-12 14:10:00,59.3,52.4,29.68,NW,315,8.5,15.9,77,0.00,,,0.00,WSDL version 420,2013-06-12 18:10:00,
2013-06-12 14:15:00,59.2,51.5,29.68,WNW,293,10.3,15.9,76,0.00,,,0.00,WSDL version 420,2013-06-12 18:15:00,
2013-06-12 14:20:00,59.1,51.2,29.68,WNW,293,10.3,15.9,75,0.00,,,0.00,WSDL version 420,2013-06-12 18:20:00,
2013-06-12 14:26:00,59.1,51.5,29.68,NW,315,5.4,12.1,76,0.00,,,0.00,WSDL version 420,2013-06-12 18:26:00,
2013-06-12 14:31:00,59.0,51.5,29.68,NW,315,8.3,12.5,77,0.00,,,0.00,WSDL version 420,2013-06-12 18:31:00,
2013-06-12 14:36:00,58.9,51.4,29.71,NNE,23,7.4,12.5,76,0.00,,,0.00,WSDL version 420,2013-06-12 18:36:00,
2013-06-12 14:41:00,58.8,51.5,29.71,West,270,10.5,10.5,76,0.00,,,0.00,WSDL version 420,2013-06-12 18:41:00,
2013-06-12 14:47:00,58.5,51.1,29.71,WNW,293,8.7,14.1,77,0.00,,,0.00,WSDL version 420,2013-06-12 18:47:00,
2013-06-12 14:52:00,58.5,51.2,29.74,WNW,293,7.6,14.1,77,0.00,,,0.00,WSDL version 420,2013-06-12 18:52:00,
2013-06-12 14:57:00,58.1,51.4,29.74,WSW,248,7.5,17.4,79,0.00,,,0.00,WSDL version 420,2013-06-12 18:57:00,
2013-06-12 15:02:00,57.8,51.5,29.74,WNW,302,5.8,17.4,80,0.00,,,0.00,WSDL version 420,2013-06-12 19:02:00,
2013-06-12 15:07:00,57.7,52.2,29.74,North,353,10.5,16.6,82,0.00,,,0.00,WSDL version 420,2013-06-12 19:07:00,
2013-06-12 15:12:00,57.4,52.4,29.74,WNW,302,6.9,13.4,84,-99.99,,,-99.99,WSDL version 420,2013-06-12 19:12:00,
2013-06-12 15:18:00,57.4,52.7,29.74,WNW,296,4.5,11.4,84,0.00,,,0.00,WSDL version 420,2013-06-12 19:18:00,
2013-06-12 15:23:00,57.4,53.1,29.74,NW,315,8.4,13.0,86,0.00,,,0.00,WSDL version 420,2013-06-12 19:23:00,
2013-06-12 15:29:00,57.4,53.0,29.74,WNW,299,9.6,17.0,84,-99.99,,,-99.99,WSDL version 420,2013-06-12 19:29:00,
2013-06-12 15:34:00,57.5,53.0,29.74,WNW,298,7.7,17.0,84,0.00,,,0.00,WSDL version 420,2013-06-12 19:34:00,
2013-06-12 15:39:00,57.6,53.1,29.74,NNW,343,4.8,13.6,86,0.00,,,0.00,WSDL version 420,2013-06-12 19:39:00,
2013-06-12 15:44:00,57.7,53.7,29.74,West,281,4.0,12.5,87,0.00,,,0.00,WSDL version 420,2013-06-12 19:44:00,
2013-06-12 15:49:00,57.7,53.5,29.74,NNW,330,5.9,6.5,86,0.00,,,0.00,WSDL version 420,2013-06-12 19:49:00,
2013-06-12 15:54:00,57.7,53.2,29.74,WNW,293,3.1,10.1,86,0.00,,,0.00,WSDL version 420,2013-06-12 19:54:00,
2013-06-12 15:59:00,57.9,53.4,29.74,ENE,68,6.3,10.1,84,0.00,,,0.00,WSDL version 420,2013-06-12 19:59:00,
2013-06-12 16:04:00,57.9,53.5,29.71,NW,323,7.2,8.5,86,0.00,,,0.00,WSDL version 420,2013-06-12 20:04:00,
2013-06-12 16:10:00,57.9,53.0,29.71,WSW,248,7.6,8.5,84,0.00,,,0.00,WSDL version 420,2013-06-12 20:10:00,
2013-06-12 16:15:00,58.1,53.3,29.71,WSW,248,7.6,7.6,83,0.00,,,0.00,WSDL version 420,2013-06-12 20:15:00,
2013-06-12 16:20:00,58.1,52.9,29.74,WNW,293,3.6,3.6,82,0.00,,,0.00,WSDL version 420,2013-06-12 20:20:00,
2013-06-12 16:25:00,58.2,52.9,29.74,NNE,23,5.4,5.4,83,0.00,,,0.00,WSDL version 420,2013-06-12 20:25:00,
2013-06-12 16:30:00,58.3,53.1,29.74,NNE,23,5.4,5.4,82,0.00,,,0.00,WSDL version 420,2013-06-12 20:30:00,
2013-06-12 16:34:00,58.3,53.0,29.74,North,360,4.3,4.3,83,0.00,,,0.00,WSDL version 420,2013-06-12 20:34:00,
2013-06-12 16:40:00,58.3,53.0,29.74,South,180,3.8,4.9,82,0.00,,,0.00,WSDL version 420,2013-06-12 20:40:00,
2013-06-12 16:46:00,58.3,52.7,29.74,WSW,248,4.3,5.4,81,0.00,,,0.00,WSDL version 420,2013-06-12 20:46:00,
2013-06-12 16:51:00,58.3,52.4,29.74,WSW,248,4.3,5.4,81,0.00,,,0.00,WSDL version 420,2013-06-12 20:51:00,
2013-06-12 16:56:00,58.5,53.1,29.74,NW,315,4.3,8.5,82,0.00,,,0.00,WSDL version 420,2013-06-12 20:56:00,
2013-06-12 17:01:00,58.5,52.7,29.74,North,360,5.6,8.5,81,0.00,,,0.00,WSDL version 420,2013-06-12 21:01:00,
2013-06-12 17:06:00,58.5,52.7,29.71,WNW,293,2.7,5.8,81,0.00,,,0.00,WSDL version 420,2013-06-12 21:06:00,
2013-06-12 17:12:00,58.5,52.7,29.71,WNW,293,2.7,4.3,81,0.00,,,0.00,WSDL version 420,2013-06-12 21:12:00,
2013-06-12 17:17:00,58.4,52.6,29.71,WNW,293,2.7,4.3,81,0.00,,,0.00,WSDL version 420,2013-06-12 21:17:00,
2013-06-12 17:22:00,58.3,52.8,29.74,North,-999,-999.0,-999.0,82,0.00,,,0.00,WSDL version 420,2013-06-12 21:22:00,
2013-06-12 17:27:00,58.3,52.9,29.74,North,-999,-999.0,-999.0,82,0.00,,,0.00,WSDL version 420,2013-06-12 21:27:00,
2013-06-12 17:33:00,58.3,52.6,29.74,WNW,293,6.5,6.5,80,0.00,,,0.00,WSDL version 420,2013-06-12 21:33:00,
2013-06-12 17:38:00,58.1,52.1,29.74,North,0,0.0,4.9,81,0.00,,,0.00,WSDL version 420,2013-06-12 21:38:00,
2013-06-12 17:43:00,58.1,52.4,29.74,WNW,293,6.5,6.5,81,0.00,,,0.00,WSDL version 420,2013-06-12 21:43:00,
2013-06-12 17:48:00,58.1,52.7,29.71,North,-999,-999.0,-999.0,82,0.00,,,0.00,WSDL version 420,2013-06-12 21:48:00,
2013-06-12 17:54:00,58.2,52.8,29.71,NW,315,3.6,4.9,82,0.00,,,0.00,WSDL version 420,2013-06-12 21:54:00,
2013-06-12 17:59:00,58.3,52.7,29.71,NW,315,4.5,4.5,81,0.00,,,0.00,WSDL version 420,2013-06-12 21:59:00,
2013-06-12 18:04:00,58.3,52.5,29.74,NW,315,4.5,4.5,81,0.00,,,0.00,WSDL version 420,2013-06-12 22:04:00,
2013-06-12 18:09:00,58.3,52.5,29.74,WSW,248,4.3,4.3,81,0.00,,,0.00,WSDL version 420,2013-06-12 22:09:00,
2013-06-12 18:15:00,58.5,52.8,29.74,WSW,248,4.3,4.3,81,0.00,,,0.00,WSDL version 420,2013-06-12 22:15:00,
2013-06-12 18:21:00,58.8,52.7,29.74,NW,315,5.4,6.3,80,0.00,,,0.00,WSDL version 420,2013-06-12 22:21:00,
2013-06-12 18:26:00,58.8,52.3,29.74,NW,315,6.8,8.5,78,0.00,,,0.00,WSDL version 420,2013-06-12 22:26:00,
2013-06-12 18:31:00,58.9,52.4,29.74,NNW,338,4.7,8.5,79,0.00,,,0.00,WSDL version 420,2013-06-12 22:31:00,
2013-06-12 18:37:00,58.9,52.5,29.74,NW,315,7.4,7.4,79,0.00,,,0.00,WSDL version 420,2013-06-12 22:37:00,
2013-06-12 18:42:00,58.7,52.2,29.74,North,353,4.2,5.8,79,0.00,,,0.00,WSDL version 420,2013-06-12 22:42:00,
2013-06-12 18:47:00,58.6,52.5,29.74,West,281,2.8,5.6,80,0.00,,,0.00,WSDL version 420,2013-06-12 22:47:00,
2013-06-12 18:53:00,58.5,52.3,29.74,North,0,0.0,5.6,80,0.00,,,0.00,WSDL version 420,2013-06-12 22:53:00,
2013-06-12 18:58:00,58.3,52.3,29.74,NW,304,2.1,3.4,80,0.00,,,0.00,WSDL version 420,2013-06-12 22:58:00,
2013-06-12 19:02:00,58.3,52.4,29.74,West,281,1.6,3.8,81,0.00,,,0.00,WSDL version 420,2013-06-12 23:02:00,
2013-06-12 19:07:00,58.3,52.5,29.77,WSW,248,1.6,3.8,81,0.00,,,0.00,WSDL version 420,2013-06-12 23:07:00,
2013-06-12 19:12:00,58.3,52.5,29.77,NNW,338,3.1,3.6,81,0.00,,,0.00,WSDL version 420,2013-06-12 23:12:00,
2013-06-12 19:17:00,58.3,52.1,29.77,North,0,0.0,3.6,80,0.00,,,0.00,WSDL version 420,2013-06-12 23:17:00,
2013-06-12 19:22:00,58.3,52.1,29.77,NNW,338,3.1,3.6,80,0.00,,,0.00,WSDL version 420,2013-06-12 23:22:00,
2013-06-12 19:27:00,58.2,52.3,29.77,WNW,293,4.5,4.9,81,0.00,,,0.00,WSDL version 420,2013-06-12 23:27:00,
2013-06-12 19:32:00,58.1,52.3,29.77,WNW,293,4.5,4.9,81,0.00,,,0.00,WSDL version 420,2013-06-12 23:32:00,
2013-06-12 19:38:00,58.1,52.6,29.77,WNW,293,4.5,4.9,82,0.00,,,0.00,WSDL version 420,2013-06-12 23:38:00,
2013-06-12 19:43:00,57.9,52.4,29.77,North,-999,-999.0,-999.0,82,0.00,,,0.00,WSDL version 420,2013-06-12 23:43:00,
2013-06-12 19:48:00,57.9,52.5,29.77,North,-999,-999.0,-999.0,82,0.00,,,0.00,WSDL version 420,2013-06-12 23:48:00,
2013-06-12 19:53:00,57.7,52.4,29.77,North,-999,-999.0,-999.0,82,0.00,,,0.00,WSDL version 420,2013-06-12 23:53:00,
2013-06-12 19:59:00,57.7,52.3,29.77,North,-999,-999.0,-999.0,82,0.00,,,0.00,WSDL version 420,2013-06-12 23:59:00,
2013-06-12 20:04:00,57.6,52.2,29.77,North,-999,-999.0,-999.0,82,-99.99,,,-99.99,WSDL version 420,2013-06-13 00:04:00,
2013-06-12 20:09:00,57.5,52.1,29.77,WNW,293,2.7,3.1,82,0.00,,,0.00,WSDL version 420,2013-06-13 00:09:00,
2013-06-12 20:14:00,57.4,52.0,29.77,WNW,293,2.2,3.1,82,0.00,,,0.00,WSDL version 420,2013-06-13 00:14:00,
2013-06-12 20:20:00,57.2,52.2,29.80,West,278,1.0,2.5,83,0.00,,,0.00,WSDL version 420,2013-06-13 00:20:00,
2013-06-12 20:25:00,57.1,52.3,29.80,WSW,248,0.0,1.1,84,0.00,,,0.00,WSDL version 420,2013-06-13 00:25:00,
2013-06-12 20:31:00,56.8,52.4,29.80,West,270,0.0,1.6,86,0.00,,,0.00,WSDL version 420,2013-06-13 00:31:00,
2013-06-12 20:36:00,56.7,52.4,29.80,West,270,2.7,3.1,86,0.00,,,0.00,WSDL version 420,2013-06-13 00:36:00,
2013-06-12 20:41:00,56.7,52.4,29.80,WNW,285,4.5,7.4,86,0.00,,,0.00,WSDL version 420,2013-06-13 00:41:00,
2013-06-12 20:47:00,56.9,52.5,29.80,West,270,6.0,7.4,84,0.00,,,0.00,WSDL version 420,2013-06-13 00:47:00,
2013-06-12 20:52:00,57.2,52.0,29.77,WNW,293,7.8,7.8,82,0.00,,,0.00,WSDL version 420,2013-06-13 00:52:00,
2013-06-12 20:57:00,57.3,52.1,29.77,NE,45,2.5,7.4,83,0.00,,,0.00,WSDL version 420,2013-06-13 00:57:00,
2013-06-12 21:02:00,57.2,52.2,29.77,NE,45,2.5,7.4,83,0.00,,,0.00,WSDL version 420,2013-06-13 01:02:00,
2013-06-12 21:07:00,57.0,52.4,29.77,NE,45,2.5,2.7,84,-99.99,,,-99.99,WSDL version 420,2013-06-13 01:07:00,
2013-06-12 21:12:00,56.8,52.2,29.77,North,-999,-999.0,-999.0,84,0.00,,,0.00,WSDL version 420,2013-06-13 01:12:00,
2013-06-12 21:17:00,56.7,52.1,29.77,WNW,293,3.4,4.0,84,0.00,,,0.00,WSDL version 420,2013-06-13 01:17:00,
2013-06-12 21:22:00,56.8,52.1,29.80,WNW,293,3.8,4.3,84,0.00,,,0.00,WSDL version 420,2013-06-13 01:22:00,
2013-06-12 21:28:00,56.8,52.2,29.80,WNW,293,3.8,4.3,84,0.00,,,0.00,WSDL version 420,2013-06-13 01:28:00,
2013-06-12 21:33:00,56.8,51.8,29.80,North,-999,-999.0,-999.0,83,0.00,,,0.00,WSDL version 420,2013-06-13 01:33:00,
2013-06-12 21:39:00,56.5,51.6,29.80,WNW,293,3.1,3.1,83,0.00,,,0.00,WSDL version 420,2013-06-13 01:39:00,
2013-06-12 21:44:00,56.4,51.4,29.80,WNW,293,6.3,6.3,83,0.00,,,0.00,WSDL version 420,2013-06-13 01:44:00,
2013-06-12 21:49:00,56.2,51.5,29.77,West,280,5.4,7.6,84,0.00,,,0.00,WSDL version 420,2013-06-13 01:49:00,
2013-06-12 21:54:00,56.0,51.9,29.77,WNW,293,5.2,9.6,87,0.00,,,0.00,WSDL version 420,2013-06-13 01:54:00,
2013-06-12 21:59:00,55.9,52.3,29.77,NW,308,4.0,9.6,88,0.00,,,0.00,WSDL version 420,2013-06-13 01:59:00,
2013-06-12 22:04:00,55.9,52.7,29.80,WNW,283,5.9,10.5,89,0.00,,,0.00,WSDL version 420,2013-06-13 02:04:00,
2013-06-12 22:10:00,55.9,52.7,29.80,NW,306,4.4,10.5,89,0.00,,,0.00,WSDL version 420,2013-06-13 02:10:00,
2013-06-12 22:16:00,55.7,52.5,29.80,West,270,5.1,8.1,89,0.00,,,0.00,WSDL version 420,2013-06-13 02:16:00,
2013-06-12 22:21:00,55.5,52.3,29.80,WNW,293,5.4,7.6,89,0.00,,,0.00,WSDL version 420,2013-06-13 02:21:00,
2013-06-12 22:26:00,55.4,52.1,29.80,NW,306,4.4,7.6,89,0.00,,,0.00,WSDL version 420,2013-06-13 02:26:00,
2013-06-12 22:31:00,55.2,52.0,29.80,West,264,4.5,7.6,89,0.00,,,0.00,WSDL version 420,2013-06-13 02:31:00,
2013-06-12 22:36:00,55.0,51.8,29.77,NW,304,3.3,6.3,89,0.00,,,0.00,WSDL version 420,2013-06-13 02:36:00,
2013-06-12 22:41:00,55.0,51.9,29.77,NW,325,2.3,6.0,90,0.00,,,0.00,WSDL version 420,2013-06-13 02:41:00,
2013-06-12 22:47:00,54.9,51.8,29.77,ESE,122,1.3,6.0,89,0.00,,,0.00,WSDL version 420,2013-06-13 02:47:00,
2013-06-12 22:52:00,54.8,52.1,29.77,East,90,1.5,2.7,91,0.00,,,0.00,WSDL version 420,2013-06-13 02:52:00,
2013-06-12 22:57:00,54.5,52.0,29.77,SSE,165,0.7,2.7,91,0.00,,,0.00,WSDL version 420,2013-06-13 02:57:00,
2013-06-12 23:02:00,54.3,51.8,29.77,SW,219,0.7,2.2,91,0.00,,,0.00,WSDL version 420,2013-06-13 03:02:00,
2013-06-12 23:07:00,54.1,51.5,29.80,SSW,195,1.5,3.1,91,0.00,,,0.00,WSDL version 420,2013-06-13 03:07:00,
2013-06-12 23:12:00,53.8,51.5,29.80,South,176,1.0,3.6,92,0.00,,,0.00,WSDL version 420,2013-06-13 03:12:00,
2013-06-12 23:18:00,53.3,51.4,29.80,West,273,0.6,2.7,93,0.00,,,0.00,WSDL version 420,2013-06-13 03:18:00,
2013-06-12 23:23:00,53.0,51.0,29.80,SSW,203,1.1,2.0,93,-99.99,,,-99.99,WSDL version 420,2013-06-13 03:23:00,
2013-06-12 23:28:00,52.7,50.9,29.80,SW,231,1.4,2.7,93,0.00,,,0.00,WSDL version 420,2013-06-13 03:28:00,
2013-06-12 23:34:00,52.4,50.5,29.80,SSW,197,1.3,2.2,93,0.00,,,0.00,WSDL version 420,2013-06-13 03:34:00,
2013-06-12 23:39:00,52.2,50.3,29.80,SW,225,0.3,2.2,93,0.00,,,0.00,WSDL version 420,2013-06-13 03:39:00,
2013-06-12 23:44:00,51.9,50.3,29.80,SW,225,0.0,1.3,94,0.00,,,0.00,WSDL version 420,2013-06-13 03:44:00,
2013-06-12 23:49:00,51.7,50.1,29.80,SW,236,1.3,2.9,94,0.00,,,0.00,WSDL version 420,2013-06-13 03:49:00,
2013-06-12 23:54:00,51.6,50.2,29.80,West,270,1.1,3.1,95,0.00,,,0.00,WSDL version 420,2013-06-13 03:54:00,
2013-06-12 23:59:00,51.4,50.2,29.80,West,270,0.0,3.1,96,0.00,,,0.00,WSDL version 420,2013-06-13 03:59:00,